BAW23G EGLL-EDDF
Flight info
| Callsign | BAW23G |
|---|---|
| Flight time | 1h 18m |
| Altitude | 33000 |
| Route | BPK Q295 MATCH DCT REDFA DCT TACHA DCT NOLRU DCT DIXAT DIXAT1A |
| Aircraft | A320/M-SDE3FGHIRWY/LB1 |
Departure
| Time | 2026-05-05 07:28 |
|---|---|
| Airport | London Heathrow Airport (EGLL) |
Arrival
| Time | 2026-05-05 08:46 |
|---|---|
| Airport | Frankfurt Main Airport (EDDF) |
| Time | Latitude | Longitude | Altitude | Speed | Heading |
|---|---|---|---|---|---|
| 2026-05-05 07:05 | 51.47134 | -0.48619 | 86 ft | 0 kts | 269° |
| 2026-05-05 07:20 | 51.47134 | -0.48612 | 86 ft | 3 kts | 269° |
| 2026-05-05 07:20 | 51.47134 | -0.48569 | 88 ft | 4 kts | 268° |
| 2026-05-05 07:20 | 51.47136 | -0.48526 | 89 ft | 4 kts | 261° |
| 2026-05-05 07:20 | 51.47143 | -0.48486 | 87 ft | 4 kts | 230° |
| 2026-05-05 07:21 | 51.47155 | -0.48473 | 90 ft | 0 kts | 180° |
| 2026-05-05 07:24 | 51.47148 | -0.48473 | 90 ft | 2 kts | 180° |
| 2026-05-05 07:24 | 51.47131 | -0.48473 | 86 ft | 4 kts | 180° |
| 2026-05-05 07:24 | 51.47061 | -0.48472 | 89 ft | 13 kts | 180° |
| 2026-05-05 07:24 | 51.46962 | -0.48471 | 88 ft | 15 kts | 179° |
| 2026-05-05 07:25 | 51.46849 | -0.48468 | 86 ft | 17 kts | 179° |
| 2026-05-05 07:25 | 51.46722 | -0.48467 | 86 ft | 19 kts | 180° |
| 2026-05-05 07:25 | 51.46622 | -0.48467 | 86 ft | 14 kts | 180° |
| 2026-05-05 07:25 | 51.46588 | -0.48468 | 86 ft | 0 kts | 180° |
| 2026-05-05 07:26 | 51.46579 | -0.48467 | 86 ft | 2 kts | 180° |
| 2026-05-05 07:26 | 51.46557 | -0.48468 | 86 ft | 4 kts | 180° |
| 2026-05-05 07:26 | 51.46515 | -0.48469 | 86 ft | 8 kts | 182° |
| 2026-05-05 07:26 | 51.46478 | -0.48389 | 87 ft | 11 kts | 92° |
| 2026-05-05 07:27 | 51.46479 | -0.48254 | 89 ft | 13 kts | 90° |
| 2026-05-05 07:27 | 51.46479 | -0.48036 | 87 ft | 44 kts | 89° |
| 2026-05-05 07:27 | 51.46483 | -0.47109 | 87 ft | 120 kts | 89° |
| 2026-05-05 07:27 | 51.46486 | -0.45450 | 91 ft | 175 kts | 90° |
| 2026-05-05 07:28 | 51.46473 | -0.43432 | 704 ft | 180 kts | 88° |
| 2026-05-05 07:28 | 51.46483 | -0.41444 | 1668 ft | 177 kts | 85° |
| 2026-05-05 07:28 | 51.46590 | -0.39536 | 2416 ft | 169 kts | 66° |
| 2026-05-05 07:28 | 51.47309 | -0.37998 | 2656 ft | 185 kts | 36° |
| 2026-05-05 07:29 | 51.48485 | -0.36880 | 2828 ft | 207 kts | 29° |
| 2026-05-05 07:29 | 51.49788 | -0.35603 | 3106 ft | 232 kts | 34° |
| 2026-05-05 07:29 | 51.51026 | -0.33856 | 3713 ft | 245 kts | 47° |
| 2026-05-05 07:29 | 51.52074 | -0.31640 | 4389 ft | 253 kts | 54° |
| 2026-05-05 07:30 | 51.52849 | -0.29071 | 5175 ft | 262 kts | 75° |
| 2026-05-05 07:30 | 51.53872 | -0.23361 | 5986 ft | 269 kts | 56° |
| 2026-05-05 07:30 | 51.55077 | -0.21099 | 6000 ft | 265 kts | 37° |
| 2026-05-05 07:31 | 51.56675 | -0.19668 | 6006 ft | 264 kts | 19° |
| 2026-05-05 07:31 | 51.58396 | -0.18612 | 6007 ft | 265 kts | 22° |
| 2026-05-05 07:31 | 51.60134 | -0.17646 | 6008 ft | 263 kts | 17° |
| 2026-05-05 07:31 | 51.61886 | -0.16792 | 6009 ft | 264 kts | 17° |
| 2026-05-05 07:32 | 51.63652 | -0.15946 | 6010 ft | 265 kts | 16° |
| 2026-05-05 07:32 | 51.65418 | -0.15112 | 6014 ft | 264 kts | 16° |
| 2026-05-05 07:32 | 51.67180 | -0.14309 | 6007 ft | 264 kts | 15° |
| 2026-05-05 07:32 | 51.68962 | -0.13533 | 6011 ft | 266 kts | 15° |
| 2026-05-05 07:33 | 51.70743 | -0.12772 | 6009 ft | 264 kts | 14° |
| 2026-05-05 07:33 | 51.72514 | -0.12000 | 6006 ft | 264 kts | 18° |
| 2026-05-05 07:33 | 51.74054 | -0.10455 | 6006 ft | 265 kts | 46° |
| 2026-05-05 07:33 | 51.75034 | -0.07927 | 6175 ft | 271 kts | 69° |
| 2026-05-05 07:34 | 51.75431 | -0.04942 | 6972 ft | 275 kts | 82° |
| 2026-05-05 07:34 | 51.75671 | -0.01855 | 7747 ft | 279 kts | 81° |
| 2026-05-05 07:34 | 51.75937 | 0.01265 | 8508 ft | 283 kts | 81° |
| 2026-05-05 07:34 | 51.76212 | 0.04442 | 9239 ft | 289 kts | 81° |
| 2026-05-05 07:35 | 51.76487 | 0.07632 | 9965 ft | 293 kts | 81° |
| 2026-05-05 07:35 | 51.76769 | 0.10946 | 10400 ft | 308 kts | 82° |
| 2026-05-05 07:35 | 51.77065 | 0.14497 | 10565 ft | 330 kts | 81° |
| 2026-05-05 07:35 | 51.77379 | 0.18296 | 10693 ft | 352 kts | 82° |
| 2026-05-05 07:36 | 51.77710 | 0.22311 | 10955 ft | 367 kts | 81° |
| 2026-05-05 07:36 | 51.78148 | 0.26393 | 11500 ft | 371 kts | 75° |
| 2026-05-05 07:36 | 51.78800 | 0.30442 | 12134 ft | 373 kts | 75° |
| 2026-05-05 07:36 | 51.79454 | 0.34506 | 12779 ft | 375 kts | 75° |
| 2026-05-05 07:37 | 51.80109 | 0.38596 | 13431 ft | 377 kts | 75° |
| 2026-05-05 07:37 | 51.80766 | 0.42714 | 14039 ft | 380 kts | 75° |
| 2026-05-05 07:37 | 51.81427 | 0.46869 | 14512 ft | 385 kts | 76° |
| 2026-05-05 07:37 | 51.82092 | 0.51082 | 14973 ft | 389 kts | 76° |
| 2026-05-05 07:38 | 51.82761 | 0.55346 | 15449 ft | 393 kts | 76° |
| 2026-05-05 07:38 | 51.83435 | 0.59648 | 15945 ft | 396 kts | 76° |
| 2026-05-05 07:38 | 51.84115 | 0.63988 | 16426 ft | 400 kts | 77° |
| 2026-05-05 07:38 | 51.84800 | 0.68376 | 16914 ft | 404 kts | 77° |
| 2026-05-05 07:39 | 51.85491 | 0.72800 | 17424 ft | 407 kts | 76° |
| 2026-05-05 07:39 | 51.86188 | 0.77268 | 17916 ft | 411 kts | 76° |
| 2026-05-05 07:39 | 51.86888 | 0.81767 | 18412 ft | 414 kts | 77° |
| 2026-05-05 07:39 | 51.87592 | 0.86305 | 18840 ft | 417 kts | 77° |
| 2026-05-05 07:40 | 51.88296 | 0.90875 | 19299 ft | 420 kts | 77° |
| 2026-05-05 07:40 | 51.89001 | 0.95477 | 19754 ft | 423 kts | 77° |
| 2026-05-05 07:40 | 51.89700 | 1.00051 | 20184 ft | 426 kts | 77° |
| 2026-05-05 07:40 | 51.90413 | 1.04726 | 20606 ft | 429 kts | 77° |
| 2026-05-05 07:41 | 51.91134 | 1.09429 | 21021 ft | 432 kts | 77° |
| 2026-05-05 07:41 | 51.91858 | 1.14163 | 21422 ft | 435 kts | 77° |
| 2026-05-05 07:41 | 51.92584 | 1.18930 | 21812 ft | 437 kts | 77° |
| 2026-05-05 07:41 | 51.93312 | 1.23739 | 22194 ft | 440 kts | 77° |
| 2026-05-05 07:42 | 51.94044 | 1.28576 | 22560 ft | 443 kts | 78° |
| 2026-05-05 07:42 | 51.94775 | 1.33441 | 22931 ft | 446 kts | 78° |
| 2026-05-05 07:42 | 51.95508 | 1.38342 | 23292 ft | 449 kts | 78° |
| 2026-05-05 07:42 | 51.96243 | 1.43271 | 23631 ft | 451 kts | 78° |
| 2026-05-05 07:43 | 51.96983 | 1.48233 | 23925 ft | 454 kts | 78° |
| 2026-05-05 07:43 | 51.97726 | 1.53228 | 24207 ft | 457 kts | 78° |
| 2026-05-05 07:43 | 51.98470 | 1.58251 | 24505 ft | 459 kts | 78° |
| 2026-05-05 07:43 | 51.99215 | 1.63304 | 24805 ft | 462 kts | 78° |
| 2026-05-05 07:44 | 51.99963 | 1.68389 | 25101 ft | 464 kts | 78° |
| 2026-05-05 07:44 | 52.00709 | 1.73496 | 25398 ft | 467 kts | 78° |
| 2026-05-05 07:44 | 52.01458 | 1.78633 | 25756 ft | 467 kts | 78° |
| 2026-05-05 07:44 | 52.02204 | 1.83766 | 26200 ft | 467 kts | 78° |
| 2026-05-05 07:45 | 52.02948 | 1.88890 | 26600 ft | 467 kts | 78° |
| 2026-05-05 07:45 | 52.03691 | 1.94016 | 27030 ft | 466 kts | 78° |
| 2026-05-05 07:45 | 52.04434 | 1.99148 | 27431 ft | 467 kts | 78° |
| 2026-05-05 07:45 | 52.05174 | 2.04280 | 27842 ft | 467 kts | 78° |
| 2026-05-05 07:46 | 52.05912 | 2.09422 | 28268 ft | 467 kts | 78° |
| 2026-05-05 07:46 | 52.06644 | 2.14555 | 28703 ft | 466 kts | 78° |
| 2026-05-05 07:46 | 52.07372 | 2.19697 | 29133 ft | 466 kts | 78° |
| 2026-05-05 07:46 | 52.08097 | 2.24825 | 29567 ft | 466 kts | 78° |
| 2026-05-05 07:47 | 52.08821 | 2.29959 | 30005 ft | 466 kts | 78° |
| 2026-05-05 07:47 | 52.09544 | 2.35088 | 30398 ft | 465 kts | 78° |
| 2026-05-05 07:47 | 52.10263 | 2.40205 | 30820 ft | 463 kts | 78° |
| 2026-05-05 07:47 | 52.10974 | 2.45293 | 31265 ft | 461 kts | 78° |
| 2026-05-05 07:48 | 52.11702 | 2.50371 | 31640 ft | 461 kts | 77° |
| 2026-05-05 07:48 | 52.12548 | 2.55409 | 32035 ft | 461 kts | 74° |
| 2026-05-05 07:48 | 52.13493 | 2.60383 | 32472 ft | 459 kts | 73° |
| 2026-05-05 07:48 | 52.14478 | 2.65253 | 32886 ft | 458 kts | 72° |
| 2026-05-05 07:49 | 52.16488 | 2.75158 | 32999 ft | 467 kts | 73° |
| 2026-05-05 07:49 | 52.18442 | 2.85345 | 32988 ft | 473 kts | 74° |
| 2026-05-05 07:50 | 52.20355 | 2.95626 | 32979 ft | 474 kts | 74° |
| 2026-05-05 07:50 | 52.22256 | 3.05942 | 32986 ft | 476 kts | 74° |
| 2026-05-05 07:51 | 52.24036 | 3.16332 | 32990 ft | 475 kts | 82° |
| 2026-05-05 07:51 | 52.24210 | 3.26996 | 33003 ft | 469 kts | 100° |
| 2026-05-05 07:52 | 52.22508 | 3.37155 | 32974 ft | 464 kts | 114° |
| 2026-05-05 07:52 | 52.20166 | 3.46958 | 32966 ft | 464 kts | 114° |
| 2026-05-05 07:53 | 52.17804 | 3.56761 | 32960 ft | 465 kts | 114° |
| 2026-05-05 07:53 | 52.15433 | 3.66571 | 32968 ft | 466 kts | 114° |
| 2026-05-05 07:54 | 52.13060 | 3.76385 | 32964 ft | 466 kts | 114° |
| 2026-05-05 07:54 | 52.10668 | 3.86186 | 32967 ft | 466 kts | 114° |
| 2026-05-05 07:55 | 52.08675 | 3.94331 | 32944 ft | 466 kts | 115° |
| 2026-05-05 07:55 | 52.06272 | 4.04123 | 32946 ft | 467 kts | 115° |
| 2026-05-05 07:56 | 52.03852 | 4.13932 | 32947 ft | 468 kts | 115° |
| 2026-05-05 07:56 | 52.01419 | 4.23738 | 32935 ft | 468 kts | 115° |
| 2026-05-05 07:57 | 51.98980 | 4.33551 | 32939 ft | 469 kts | 115° |
| 2026-05-05 07:57 | 51.96534 | 4.43352 | 32942 ft | 469 kts | 115° |
| 2026-05-05 07:58 | 51.94076 | 4.53141 | 32925 ft | 469 kts | 116° |
| 2026-05-05 07:58 | 51.91604 | 4.62921 | 32933 ft | 469 kts | 116° |
| 2026-05-05 07:59 | 51.89117 | 4.72701 | 32946 ft | 470 kts | 116° |
| 2026-05-05 07:59 | 51.86636 | 4.82479 | 32950 ft | 470 kts | 116° |
| 2026-05-05 08:00 | 51.84146 | 4.92263 | 32938 ft | 470 kts | 117° |
| 2026-05-05 08:00 | 51.81642 | 5.02019 | 32943 ft | 470 kts | 117° |
| 2026-05-05 08:01 | 51.79123 | 5.11766 | 32946 ft | 470 kts | 117° |
| 2026-05-05 08:01 | 51.76605 | 5.21501 | 32947 ft | 470 kts | 117° |
| 2026-05-05 08:02 | 51.74094 | 5.31166 | 32947 ft | 470 kts | 117° |
| 2026-05-05 08:02 | 51.71550 | 5.40888 | 32935 ft | 470 kts | 118° |
| 2026-05-05 08:03 | 51.68996 | 5.50605 | 32939 ft | 471 kts | 118° |
| 2026-05-05 08:03 | 51.66443 | 5.60309 | 32935 ft | 470 kts | 118° |
| 2026-05-05 08:04 | 51.63892 | 5.70003 | 32955 ft | 470 kts | 118° |
| 2026-05-05 08:04 | 51.61331 | 5.79663 | 32943 ft | 469 kts | 118° |
| 2026-05-05 08:05 | 51.58752 | 5.89306 | 32939 ft | 469 kts | 119° |
| 2026-05-05 08:05 | 51.56161 | 5.98951 | 32911 ft | 470 kts | 119° |
| 2026-05-05 08:06 | 51.54138 | 6.06502 | 32919 ft | 451 kts | 119° |
| 2026-05-05 08:06 | 51.52922 | 6.11057 | 32916 ft | 436 kts | 120° |
| 2026-05-05 08:06 | 51.51745 | 6.15449 | 32920 ft | 421 kts | 120° |
| 2026-05-05 08:07 | 51.50602 | 6.19696 | 32918 ft | 407 kts | 120° |
| 2026-05-05 08:07 | 51.49503 | 6.23808 | 32919 ft | 395 kts | 120° |
| 2026-05-05 08:07 | 51.48484 | 6.27831 | 32911 ft | 383 kts | 118° |
| 2026-05-05 08:07 | 51.47532 | 6.31749 | 32921 ft | 371 kts | 118° |
| 2026-05-05 08:08 | 51.45668 | 6.39495 | 32931 ft | 380 kts | 118° |
| 2026-05-05 08:08 | 51.43675 | 6.47581 | 32923 ft | 399 kts | 118° |
| 2026-05-05 08:09 | 51.41575 | 6.56032 | 32917 ft | 417 kts | 118° |
| 2026-05-05 08:09 | 51.39385 | 6.64849 | 32916 ft | 435 kts | 117° |
| 2026-05-05 08:10 | 51.37108 | 6.74023 | 32916 ft | 452 kts | 117° |
| 2026-05-05 08:10 | 51.34719 | 6.83571 | 32921 ft | 470 kts | 117° |
| 2026-05-05 08:11 | 51.32279 | 6.93324 | 32899 ft | 473 kts | 117° |
| 2026-05-05 08:11 | 51.29818 | 7.03084 | 32901 ft | 473 kts | 117° |
| 2026-05-05 08:12 | 51.26557 | 7.11987 | 32902 ft | 459 kts | 136° |
| 2026-05-05 08:12 | 51.21959 | 7.18616 | 32735 ft | 436 kts | 153° |
| 2026-05-05 08:13 | 51.19351 | 7.20976 | 32592 ft | 417 kts | 160° |
| 2026-05-05 08:13 | 51.16815 | 7.22984 | 32408 ft | 407 kts | 159° |
| 2026-05-05 08:13 | 51.14297 | 7.24979 | 32037 ft | 401 kts | 159° |
| 2026-05-05 08:13 | 51.11800 | 7.26952 | 31658 ft | 398 kts | 159° |
| 2026-05-05 08:14 | 51.09335 | 7.28926 | 31246 ft | 395 kts | 158° |
| 2026-05-05 08:14 | 51.06894 | 7.30920 | 30679 ft | 395 kts | 157° |
| 2026-05-05 08:14 | 51.04401 | 7.32967 | 29275 ft | 414 kts | 156° |
| 2026-05-05 08:14 | 51.01781 | 7.35126 | 27574 ft | 435 kts | 155° |
| 2026-05-05 08:15 | 50.99029 | 7.37400 | 25773 ft | 456 kts | 155° |
| 2026-05-05 08:15 | 50.96162 | 7.39774 | 24292 ft | 472 kts | 154° |
| 2026-05-05 08:15 | 50.93270 | 7.42168 | 23764 ft | 460 kts | 154° |
| 2026-05-05 08:15 | 50.90533 | 7.44433 | 23582 ft | 428 kts | 154° |
| 2026-05-05 08:16 | 50.87981 | 7.46539 | 23456 ft | 399 kts | 154° |
| 2026-05-05 08:16 | 50.85590 | 7.48501 | 23318 ft | 375 kts | 154° |
| 2026-05-05 08:16 | 50.83329 | 7.50353 | 22950 ft | 359 kts | 154° |
| 2026-05-05 08:16 | 50.81143 | 7.52141 | 22265 ft | 349 kts | 155° |
| 2026-05-05 08:17 | 50.78991 | 7.53893 | 21499 ft | 346 kts | 155° |
| 2026-05-05 08:17 | 50.76858 | 7.55621 | 20785 ft | 343 kts | 155° |
| 2026-05-05 08:17 | 50.74744 | 7.57329 | 20087 ft | 340 kts | 155° |
| 2026-05-05 08:17 | 50.72676 | 7.59002 | 19410 ft | 337 kts | 155° |
| 2026-05-05 08:18 | 50.70595 | 7.60689 | 18749 ft | 335 kts | 155° |
| 2026-05-05 08:18 | 50.68529 | 7.62363 | 18093 ft | 332 kts | 155° |
| 2026-05-05 08:18 | 50.66482 | 7.64020 | 17378 ft | 329 kts | 155° |
| 2026-05-05 08:18 | 50.64461 | 7.65654 | 16797 ft | 323 kts | 155° |
| 2026-05-05 08:19 | 50.62488 | 7.67248 | 16433 ft | 318 kts | 155° |
| 2026-05-05 08:19 | 50.60533 | 7.68832 | 16048 ft | 315 kts | 155° |
| 2026-05-05 08:19 | 50.58593 | 7.70402 | 15675 ft | 312 kts | 155° |
| 2026-05-05 08:19 | 50.56668 | 7.71955 | 15325 ft | 310 kts | 155° |
| 2026-05-05 08:20 | 50.54754 | 7.73496 | 14965 ft | 308 kts | 155° |
| 2026-05-05 08:20 | 50.52852 | 7.75025 | 14618 ft | 306 kts | 155° |
| 2026-05-05 08:20 | 50.50960 | 7.76542 | 14270 ft | 304 kts | 155° |
| 2026-05-05 08:20 | 50.49075 | 7.78053 | 13935 ft | 303 kts | 155° |
| 2026-05-05 08:21 | 50.47213 | 7.79545 | 13574 ft | 300 kts | 155° |
| 2026-05-05 08:21 | 50.45358 | 7.81028 | 13211 ft | 299 kts | 155° |
| 2026-05-05 08:21 | 50.43540 | 7.82591 | 12863 ft | 298 kts | 149° |
| 2026-05-05 08:21 | 50.41904 | 7.84521 | 12595 ft | 298 kts | 144° |
| 2026-05-05 08:22 | 50.40282 | 7.86552 | 12309 ft | 297 kts | 144° |
| 2026-05-05 08:22 | 50.38666 | 7.88565 | 12026 ft | 297 kts | 144° |
| 2026-05-05 08:22 | 50.37053 | 7.90561 | 11747 ft | 294 kts | 144° |
| 2026-05-05 08:22 | 50.35450 | 7.92539 | 11471 ft | 293 kts | 144° |
| 2026-05-05 08:23 | 50.33854 | 7.94507 | 11203 ft | 291 kts | 144° |
| 2026-05-05 08:23 | 50.32266 | 7.96467 | 10921 ft | 290 kts | 144° |
| 2026-05-05 08:23 | 50.30685 | 7.98421 | 10640 ft | 289 kts | 144° |
| 2026-05-05 08:23 | 50.29111 | 8.00363 | 10381 ft | 287 kts | 144° |
| 2026-05-05 08:24 | 50.27545 | 8.02294 | 10201 ft | 287 kts | 144° |
| 2026-05-05 08:24 | 50.26067 | 8.04390 | 9949 ft | 287 kts | 133° |
| 2026-05-05 08:24 | 50.24849 | 8.06857 | 9885 ft | 288 kts | 129° |
| 2026-05-05 08:24 | 50.23633 | 8.09343 | 9814 ft | 288 kts | 129° |
| 2026-05-05 08:25 | 50.22410 | 8.11816 | 9715 ft | 288 kts | 130° |
| 2026-05-05 08:25 | 50.21184 | 8.14285 | 9645 ft | 288 kts | 130° |
| 2026-05-05 08:25 | 50.19960 | 8.16753 | 9544 ft | 286 kts | 130° |
| 2026-05-05 08:25 | 50.18747 | 8.19203 | 9074 ft | 285 kts | 129° |
| 2026-05-05 08:26 | 50.17534 | 8.21652 | 8769 ft | 283 kts | 129° |
| 2026-05-05 08:26 | 50.16335 | 8.24076 | 8448 ft | 281 kts | 129° |
| 2026-05-05 08:26 | 50.15143 | 8.26477 | 8163 ft | 278 kts | 129° |
| 2026-05-05 08:26 | 50.13976 | 8.28834 | 8036 ft | 279 kts | 130° |
| 2026-05-05 08:27 | 50.12787 | 8.31225 | 7906 ft | 279 kts | 130° |
| 2026-05-05 08:27 | 50.11612 | 8.33631 | 7778 ft | 279 kts | 125° |
| 2026-05-05 08:27 | 50.10785 | 8.36360 | 7652 ft | 281 kts | 108° |
| 2026-05-05 08:27 | 50.10521 | 8.39376 | 7523 ft | 283 kts | 90° |
| 2026-05-05 08:28 | 50.10854 | 8.42400 | 7401 ft | 285 kts | 72° |
| 2026-05-05 08:28 | 50.11550 | 8.45292 | 7266 ft | 286 kts | 71° |
| 2026-05-05 08:28 | 50.12250 | 8.48191 | 7142 ft | 286 kts | 71° |
| 2026-05-05 08:28 | 50.12945 | 8.51094 | 7019 ft | 285 kts | 71° |
| 2026-05-05 08:29 | 50.13637 | 8.53992 | 6893 ft | 285 kts | 71° |
| 2026-05-05 08:29 | 50.14326 | 8.56892 | 6766 ft | 284 kts | 71° |
| 2026-05-05 08:29 | 50.14992 | 8.59694 | 6638 ft | 267 kts | 71° |
| 2026-05-05 08:30 | 50.16227 | 8.64892 | 6392 ft | 252 kts | 72° |
| 2026-05-05 08:30 | 50.16834 | 8.67452 | 6272 ft | 252 kts | 72° |
| 2026-05-05 08:30 | 50.17438 | 8.70004 | 6140 ft | 250 kts | 72° |
| 2026-05-05 08:30 | 50.18040 | 8.72547 | 6008 ft | 249 kts | 72° |
| 2026-05-05 08:31 | 50.18637 | 8.75079 | 5883 ft | 248 kts | 71° |
| 2026-05-05 08:31 | 50.19236 | 8.77601 | 5753 ft | 247 kts | 71° |
| 2026-05-05 08:31 | 50.19831 | 8.80116 | 5625 ft | 247 kts | 71° |
| 2026-05-05 08:31 | 50.20422 | 8.82624 | 5498 ft | 246 kts | 71° |
| 2026-05-05 08:32 | 50.21009 | 8.85122 | 5364 ft | 245 kts | 71° |
| 2026-05-05 08:32 | 50.21597 | 8.87617 | 5240 ft | 244 kts | 71° |
| 2026-05-05 08:32 | 50.22181 | 8.90103 | 5113 ft | 243 kts | 71° |
| 2026-05-05 08:32 | 50.22761 | 8.92576 | 5075 ft | 241 kts | 71° |
| 2026-05-05 08:33 | 50.23340 | 8.95048 | 5336 ft | 244 kts | 72° |
| 2026-05-05 08:33 | 50.23925 | 8.97558 | 5459 ft | 246 kts | 71° |
| 2026-05-05 08:33 | 50.24504 | 9.00035 | 5491 ft | 246 kts | 71° |
| 2026-05-05 08:33 | 50.25092 | 9.02550 | 5492 ft | 246 kts | 71° |
| 2026-05-05 08:34 | 50.25673 | 9.05045 | 5493 ft | 246 kts | 72° |
| 2026-05-05 08:34 | 50.26257 | 9.07558 | 5494 ft | 246 kts | 71° |
| 2026-05-05 08:34 | 50.26840 | 9.10062 | 5345 ft | 244 kts | 71° |
| 2026-05-05 08:34 | 50.27417 | 9.12559 | 5062 ft | 243 kts | 72° |
| 2026-05-05 08:35 | 50.27706 | 9.15119 | 4778 ft | 238 kts | 95° |
| 2026-05-05 08:35 | 50.27282 | 9.17579 | 4483 ft | 234 kts | 121° |
| 2026-05-05 08:35 | 50.26241 | 9.19437 | 4310 ft | 223 kts | 147° |
| 2026-05-05 08:35 | 50.24892 | 9.20400 | 4093 ft | 208 kts | 171° |
| 2026-05-05 08:36 | 50.23486 | 9.20433 | 4001 ft | 196 kts | 192° |
| 2026-05-05 08:36 | 50.22237 | 9.19694 | 3992 ft | 190 kts | 212° |
| 2026-05-05 08:36 | 50.21265 | 9.18357 | 3997 ft | 190 kts | 231° |
| 2026-05-05 08:36 | 50.20581 | 9.16598 | 3995 ft | 190 kts | 240° |
| 2026-05-05 08:37 | 50.19935 | 9.14810 | 3981 ft | 187 kts | 240° |
| 2026-05-05 08:37 | 50.19317 | 9.13099 | 4014 ft | 178 kts | 239° |
| 2026-05-05 08:37 | 50.18709 | 9.11419 | 4001 ft | 178 kts | 239° |
| 2026-05-05 08:37 | 50.18102 | 9.09737 | 3997 ft | 178 kts | 239° |
| 2026-05-05 08:38 | 50.17496 | 9.08057 | 3994 ft | 178 kts | 239° |
| 2026-05-05 08:38 | 50.16888 | 9.06375 | 3987 ft | 178 kts | 239° |
| 2026-05-05 08:38 | 50.16280 | 9.04695 | 3995 ft | 178 kts | 240° |
| 2026-05-05 08:38 | 50.15670 | 9.03016 | 3995 ft | 178 kts | 239° |
| 2026-05-05 08:39 | 50.15060 | 9.01338 | 3999 ft | 178 kts | 239° |
| 2026-05-05 08:39 | 50.14447 | 8.99655 | 3992 ft | 178 kts | 239° |
| 2026-05-05 08:39 | 50.13845 | 8.97998 | 3996 ft | 178 kts | 239° |
| 2026-05-05 08:39 | 50.13237 | 8.96322 | 3995 ft | 178 kts | 239° |
| 2026-05-05 08:40 | 50.12626 | 8.94640 | 4001 ft | 178 kts | 239° |
| 2026-05-05 08:40 | 50.12106 | 8.92892 | 4001 ft | 178 kts | 249° |
| 2026-05-05 08:40 | 50.11681 | 8.91072 | 4001 ft | 178 kts | 248° |
| 2026-05-05 08:40 | 50.11247 | 8.89261 | 4000 ft | 178 kts | 248° |
| 2026-05-05 08:41 | 50.10963 | 8.88068 | 3993 ft | 178 kts | 248° |
| 2026-05-05 08:41 | 50.10535 | 8.86252 | 3961 ft | 179 kts | 249° |
| 2026-05-05 08:41 | 50.10107 | 8.84438 | 3797 ft | 179 kts | 249° |
| 2026-05-05 08:41 | 50.09680 | 8.82625 | 3574 ft | 178 kts | 248° |
| 2026-05-05 08:42 | 50.09259 | 8.80836 | 3352 ft | 172 kts | 248° |
| 2026-05-05 08:42 | 50.08851 | 8.79107 | 3127 ft | 169 kts | 248° |
| 2026-05-05 08:42 | 50.08444 | 8.77395 | 2907 ft | 168 kts | 249° |
| 2026-05-05 08:42 | 50.08042 | 8.75684 | 2682 ft | 168 kts | 249° |
| 2026-05-05 08:43 | 50.07640 | 8.73982 | 2454 ft | 168 kts | 249° |
| 2026-05-05 08:43 | 50.07237 | 8.72278 | 2234 ft | 168 kts | 249° |
| 2026-05-05 08:43 | 50.06834 | 8.70573 | 2010 ft | 168 kts | 250° |
| 2026-05-05 08:43 | 50.06430 | 8.68872 | 1789 ft | 167 kts | 250° |
| 2026-05-05 08:44 | 50.06034 | 8.67199 | 1564 ft | 166 kts | 250° |
| 2026-05-05 08:44 | 50.05634 | 8.65513 | 1345 ft | 166 kts | 250° |
| 2026-05-05 08:44 | 50.05236 | 8.63839 | 1113 ft | 163 kts | 250° |
| 2026-05-05 08:44 | 50.04848 | 8.62208 | 906 ft | 160 kts | 251° |
| 2026-05-05 08:45 | 50.04463 | 8.60573 | 694 ft | 161 kts | 251° |
| 2026-05-05 08:45 | 50.04068 | 8.58932 | 456 ft | 161 kts | 250° |
| 2026-05-05 08:45 | 50.03699 | 8.57362 | 360 ft | 148 kts | 250° |
| 2026-05-05 08:45 | 50.03412 | 8.56163 | 355 ft | 77 kts | 249° |
| 2026-05-05 08:46 | 50.03330 | 8.55818 | 354 ft | 3 kts | 250° |
| 2026-05-05 08:46 | 50.03312 | 8.55732 | 348 ft | 14 kts | 257° |
| 2026-05-05 08:46 | 50.03314 | 8.55563 | 346 ft | 18 kts | 272° |
| 2026-05-05 08:46 | 50.03322 | 8.55433 | 349 ft | 1 kts | 278° |
| 2026-05-05 08:47 | 50.03324 | 8.55412 | 347 ft | 3 kts | 278° |
| 2026-05-05 08:47 | 50.03328 | 8.55363 | 343 ft | 6 kts | 278° |
| 2026-05-05 08:47 | 50.03335 | 8.55297 | 347 ft | 4 kts | 279° |
| 2026-05-05 08:47 | 50.03341 | 8.55243 | 342 ft | 6 kts | 285° |
| 2026-05-05 08:48 | 50.03367 | 8.55174 | 345 ft | 8 kts | 319° |
| 2026-05-05 08:48 | 50.03419 | 8.55182 | 345 ft | 8 kts | 41° |
| 2026-05-05 08:48 | 50.03442 | 8.55264 | 347 ft | 9 kts | 70° |
| 2026-05-05 08:48 | 50.03465 | 8.55359 | 354 ft | 10 kts | 70° |
| 2026-05-05 08:49 | 50.03490 | 8.55470 | 346 ft | 12 kts | 70° |
| 2026-05-05 08:49 | 50.03521 | 8.55598 | 355 ft | 13 kts | 70° |
| 2026-05-05 08:49 | 50.03556 | 8.55739 | 353 ft | 15 kts | 69° |
| 2026-05-05 08:49 | 50.03592 | 8.55890 | 352 ft | 15 kts | 70° |
| 2026-05-05 08:50 | 50.03629 | 8.56046 | 356 ft | 16 kts | 70° |
| 2026-05-05 08:50 | 50.03667 | 8.56210 | 357 ft | 17 kts | 69° |
| 2026-05-05 08:50 | 50.03712 | 8.56393 | 358 ft | 19 kts | 69° |
| 2026-05-05 08:50 | 50.03760 | 8.56596 | 358 ft | 21 kts | 70° |
| 2026-05-05 08:51 | 50.03812 | 8.56815 | 362 ft | 22 kts | 69° |
| 2026-05-05 08:51 | 50.03867 | 8.57043 | 362 ft | 22 kts | 69° |
| 2026-05-05 08:51 | 50.03920 | 8.57262 | 361 ft | 21 kts | 70° |
| 2026-05-05 08:51 | 50.03971 | 8.57476 | 367 ft | 21 kts | 70° |
| 2026-05-05 08:52 | 50.04024 | 8.57696 | 367 ft | 22 kts | 69° |
| 2026-05-05 08:52 | 50.04078 | 8.57926 | 368 ft | 23 kts | 70° |
| 2026-05-05 08:52 | 50.04135 | 8.58167 | 368 ft | 24 kts | 69° |
| 2026-05-05 08:52 | 50.04197 | 8.58416 | 369 ft | 25 kts | 69° |
| 2026-05-05 08:53 | 50.04258 | 8.58677 | 374 ft | 26 kts | 70° |
| 2026-05-05 08:53 | 50.04319 | 8.58931 | 375 ft | 25 kts | 69° |
| 2026-05-05 08:53 | 50.04380 | 8.59181 | 376 ft | 21 kts | 69° |
| 2026-05-05 08:53 | 50.04429 | 8.59388 | 376 ft | 16 kts | 70° |
| 2026-05-05 08:54 | 50.04483 | 8.59471 | 375 ft | 12 kts | 13° |
| 2026-05-05 08:54 | 50.04576 | 8.59466 | 373 ft | 15 kts | 355° |
| 2026-05-05 08:54 | 50.04691 | 8.59445 | 372 ft | 18 kts | 346° |
| 2026-05-05 08:54 | 50.04812 | 8.59378 | 371 ft | 20 kts | 340° |
| 2026-05-05 08:55 | 50.04944 | 8.59367 | 366 ft | 17 kts | 341° |
| 2026-05-05 08:55 | 50.05057 | 8.59299 | 363 ft | 14 kts | 327° |
| 2026-05-05 08:55 | 50.05118 | 8.59248 | 362 ft | 11 kts | 341° |
| 2026-05-05 08:55 | 50.05164 | 8.59203 | 363 ft | 7 kts | 313° |
| 2026-05-05 08:56 | 50.05170 | 8.59194 | 359 ft | 0 kts | 314° |